CheckWX is a tool to help pilots better visualize weather data.  It is not intended as a substitute for an official pre-flight weather briefing.

21:05:44 UTC

KSNK METAR
Winston Field Airport
Snyder, Texas, USA
Current

11 mins ago

KSNK 232055Z AUTO 27029G37KT 4SM HZ OVC035 15/M08 A2993 RMK AO2 T01521080
Observed
Feb-23 @ 20:55 UTC
Wind
  • 270° at 29 KTS
  • Gusting to 37 KTS
Visibility
4 SM
Flight Rules
MVFR
Conditions
Haze
Cloud Levels
  • Overcast at 3,500' AGL
Temperature
15°C / 59°F
Dewpoint
-8°C / 18°F
Humidity
20%
Altimeter
29.93" Hg
Pressure
1013.52 hPa
Previous

31 mins ago

KSNK 232035Z AUTO 27032G40KT 4SM HZ SCT027 OVC033 15/M09 A2992 RMK AO2 T01521088
Observed
Feb-23 @ 20:35 UTC
Wind
  • 270° at 32 KTS
  • Gusting to 40 KTS
Visibility
4 SM
Flight Rules
MVFR
Conditions
Haze
Cloud Levels
  • Scattered at 2,700' AGL
  • Overcast at 3,300' AGL
Temperature
15°C / 59°F
Dewpoint
-9°C / 16°F
Humidity
18%
Altimeter
29.92" Hg
Pressure
1013.22 hPa
Previous

51 mins ago

KSNK 232015Z AUTO 28029G38KT 3SM HZ SCT027 OVC033 15/M09 A2990 RMK AO2 T01531091
Observed
Feb-23 @ 20:15 UTC
Wind
  • 280° at 29 KTS
  • Gusting to 38 KTS
Visibility
3 SM
Flight Rules
MVFR
Conditions
Haze
Cloud Levels
  • Scattered at 2,700' AGL
  • Overcast at 3,300' AGL
Temperature
15°C / 59°F
Dewpoint
-9°C / 16°F
Humidity
18%
Altimeter
29.9" Hg
Pressure
1012.52 hPa